North Bend, OR (97459)

10:19 PM PDT on September 02, 2015 (GMT -0700)
Edd Family | | Change Station
CLOSE
Current Station
Personal Weather Station
Location: North Bend, OR
Elevation: 120 ft
Nearby Weather Stations

Elev 120 ft 43.40 °N, 124.25 °W | Updated 4 seconds ago

Scattered Clouds
Scattered Clouds
57.9 °F
Feels Like 57.9 °F
N
0.0
Wind Variable Wind from South
Gusts 0.0 mph

Today
High -- | Low -- °F
--% Chance of Precip.
Yesterday
High -- | Low -- °F
Precip. -- in
6:41 AM 7:50 PM
Waning Gibbous, 74% visible
Pressure 30.03 in
Visibility 10.0 miles
Clouds Few 2400 ft
Scattered Clouds 2800 ft
Dew Point 52 °F
Humidity 77%
Rainfall 0.00 in
Snow Depth Not available.
UV 0 out of 12
Pollen .90 out of 12
Air Quality Not available.
Flu Activity Not available.
METAR KOTH 030515Z 15004KT 10SM FEW024 SCT028 14/13 A3003 RMK AO1
Pressure 30.03 in
Visibility 10.0 miles
Clouds Few 2400 ft
Scattered Clouds 2800 ft
Dew Point 52 °F
Humidity 77%
Rainfall 0.00 in
Snow Depth Not available.
UV 0 out of 12
Pollen .90 out of 12
Air Quality Not available.
Flu Activity Not available.
METAR KOTH 030515Z 15004KT 10SM FEW024 SCT028 14/13 A3003 RMK AO1

10-Day Weather Forecast

×

Almanac

Astronomy

Sep. 02, 2015 Rise Set
Actual Time
Civil Twilight
Nautical Twilight
Astronomical Twilight
Moon
Length of Visible Light
Length of Day
Tomorrow will be .
, % of the Moon is Illuminated

Today's Extremes

State Highs State Lows

Community

WunderPhotos

Upload Photos

1,851,914 photos uploaded!

WunderBlogs® & News

Nearby

Air Quality

  Air Quality AQ Index Pollutant
Not available.

Snow Depth

Station Depth Elevation

Earthquake Activity

City Distance Mag. Time & Date
Minimum magnitude displayed is 2.5.

Coastal Water Temperatures

Place Temperature

Stations

Nearby Weather Stations

Station Location Temp. Windchill Dew Point Humidity Wind Precip. Elev Updated Type